Time;durP1;ratioP1;P1;durP2;ratioP2;P2;SDS_P1;SDS_P2;PMS_P1;PMS_P2;Temp;Humidity;BMP_temperature;BMP_pressure;BME280_temperature;BME280_humidity;BME280_pressure;Samples;Min_cycle;Max_cycle;Signal;HPM_P1;HPM_P2
2021/01/19 00:01:01;;;;;;;10.02;7.85;;;10.60;99.90;;;;;;5164031;27;20418;-88
2021/01/19 00:03:30;;;;;;;9.65;7.07;;;10.60;99.90;;;;;;5159415;27;20090;-88
2021/01/19 00:05:58;;;;;;;11.18;7.18;;;10.60;99.90;;;;;;5143701;27;20057;-88
2021/01/19 00:08:26;;;;;;;9.95;7.47;;;10.60;99.90;;;;;;5166468;27;20419;-88
2021/01/19 00:10:59;;;;;;;8.75;6.85;;;10.60;99.90;;;;;;5163497;27;20027;-87
2021/01/19 00:13:28;;;;;;;8.50;7.28;;;10.70;99.90;;;;;;5161426;27;20057;-87
2021/01/19 00:15:56;;;;;;;12.40;8.40;;;10.70;99.90;;;;;;5161849;27;20026;-87
2021/01/19 00:18:25;;;;;;;14.63;7.80;;;10.60;99.90;;;;;;5166068;27;20027;-87
2021/01/19 00:20:53;;;;;;;9.38;7.30;;;10.70;99.90;;;;;;5164257;27;20509;-87
2021/01/19 00:23:21;;;;;;;11.02;7.20;;;10.70;99.90;;;;;;5161171;27;20418;-87
2021/01/19 00:25:50;;;;;;;7.78;6.55;;;10.70;99.90;;;;;;5164458;27;20034;-88
2021/01/19 00:28:18;;;;;;;10.48;7.28;;;10.60;99.90;;;;;;5163102;27;20044;-88
2021/01/19 00:30:46;;;;;;;10.82;7.30;;;10.60;99.90;;;;;;5165860;27;20509;-87
2021/01/19 00:33:14;;;;;;;11.98;8.20;;;10.50;99.90;;;;;;5162186;27;20027;-87
2021/01/19 00:35:42;;;;;;;13.00;8.18;;;10.50;99.90;;;;;;5145217;27;20037;-87
2021/01/19 00:38:10;;;;;;;8.93;7.62;;;10.50;99.90;;;;;;5163961;27;20036;-88
2021/01/19 00:40:38;;;;;;;12.37;8.23;;;10.60;99.90;;;;;;5148660;27;20531;-88
2021/01/19 00:43:06;;;;;;;12.37;8.65;;;10.50;99.90;;;;;;5165739;27;20086;-87
2021/01/19 00:45:34;;;;;;;8.73;7.68;;;10.60;99.90;;;;;;5144378;27;20049;-87
2021/01/19 00:48:03;;;;;;;10.63;7.50;;;10.50;99.90;;;;;;5166225;27;20059;-88
2021/01/19 00:50:31;;;;;;;12.00;7.82;;;10.60;99.90;;;;;;5164933;27;20027;-87
2021/01/19 00:53:02;;;;;;;10.27;7.37;;;10.60;99.90;;;;;;5145396;27;20053;-87
2021/01/19 00:55:30;;;;;;;11.90;7.03;;;10.60;99.90;;;;;;5147060;27;20343;-87
2021/01/19 00:57:59;;;;;;;14.27;7.60;;;10.70;99.90;;;;;;5165325;27;20045;-88
2021/01/19 01:00:28;;;;;;;9.40;6.70;;;10.70;99.90;;;;;;5161784;27;20055;-88
2021/01/19 01:02:58;;;;;;;12.43;7.22;;;10.70;99.90;;;;;;5162771;27;20082;-88
2021/01/19 01:05:26;;;;;;;9.68;6.87;;;10.80;99.90;;;;;;5167364;27;20023;-87
2021/01/19 01:07:54;;;;;;;10.80;7.12;;;10.80;99.90;;;;;;5166899;27;20087;-88
2021/01/19 01:10:22;;;;;;;12.57;7.43;;;10.80;99.90;;;;;;5162166;27;20085;-87
2021/01/19 01:12:50;;;;;;;9.18;6.78;;;10.70;99.90;;;;;;5165459;27;20078;-86
2021/01/19 01:15:33;;;;;;;11.73;7.85;;;10.50;99.90;;;;;;5163962;27;20480;-88
2021/01/19 01:18:01;;;;;;;12.52;7.43;;;10.60;99.90;;;;;;5165856;27;20058;-88
2021/01/19 01:20:30;;;;;;;9.65;6.68;;;10.40;99.90;;;;;;5163237;27;20031;-86
2021/01/19 01:22:58;;;;;;;12.60;7.60;;;10.60;99.90;;;;;;5149008;27;20046;-87
2021/01/19 01:25:27;;;;;;;13.77;7.35;;;10.60;99.90;;;;;;5168395;27;20061;-87
2021/01/19 01:27:55;;;;;;;14.00;7.80;;;10.60;99.90;;;;;;5167515;27;20031;-88
2021/01/19 01:30:23;;;;;;;14.75;7.57;;;10.70;99.90;;;;;;5165899;27;20105;-88
2021/01/19 01:32:51;;;;;;;12.57;7.82;;;10.70;99.90;;;;;;5168010;27;20531;-87
2021/01/19 01:35:21;;;;;;;9.85;7.65;;;10.60;99.90;;;;;;5146649;27;20027;-87
2021/01/19 01:37:51;;;;;;;12.18;7.20;;;10.60;99.90;;;;;;5145191;27;20038;-87
2021/01/19 01:40:22;;;;;;;12.20;7.40;;;10.60;99.90;;;;;;5143898;27;20051;-86
2021/01/19 01:42:58;;;;;;;11.68;6.55;;;10.70;99.90;;;;;;5166054;27;20043;-87
2021/01/19 01:45:28;;;;;;;11.68;7.18;;;10.70;99.90;;;;;;5161797;27;20031;-86
2021/01/19 01:47:57;;;;;;;13.18;6.37;;;10.80;99.90;;;;;;5164033;27;20043;-88
2021/01/19 01:50:26;;;;;;;12.30;6.78;;;10.90;99.90;;;;;;5165034;27;20047;-87
2021/01/19 01:52:55;;;;;;;13.80;7.22;;;11.00;99.90;;;;;;5165911;27;20024;-87
2021/01/19 01:55:23;;;;;;;10.13;6.72;;;11.00;99.90;;;;;;5167451;27;20106;-87
2021/01/19 01:57:52;;;;;;;10.73;6.70;;;10.90;99.90;;;;;;5164785;27;20036;-86
2021/01/19 02:00:20;;;;;;;12.07;6.97;;;11.10;99.90;;;;;;5166178;27;20027;-87
2021/01/19 02:02:56;;;;;;;15.48;7.57;;;10.90;99.90;;;;;;5166673;27;20433;-86
2021/01/19 02:05:26;;;;;;;11.43;7.62;;;10.90;99.90;;;;;;5147300;27;20319;-88
2021/01/19 02:08:09;;;;;;;12.18;7.05;;;10.90;99.90;;;;;;5164004;27;20023;-87
2021/01/19 02:10:52;;;;;;;14.63;7.18;;;10.90;99.90;;;;;;5163964;27;20046;-87
2021/01/19 02:13:32;;;;;;;10.07;7.22;;;10.80;99.90;;;;;;5150561;27;20028;-88
2021/01/19 02:16:33;;;;;;;9.35;6.18;;;11.00;99.90;;;;;;5166573;27;20043;-87
2021/01/19 02:19:35;;;;;;;11.57;7.37;;;10.90;99.90;;;;;;5165880;27;20047;-88
2021/01/19 02:22:09;;;;;;;10.10;5.87;;;10.90;99.90;;;;;;5167169;27;20074;-87
2021/01/19 02:25:17;;;;;;;11.32;7.00;;;10.90;99.90;;;;;;5166387;27;20035;-87
2021/01/19 02:28:12;;;;;;;10.38;6.35;;;10.90;99.90;;;;;;5147531;27;20028;-87
2021/01/19 02:31:03;;;;;;;10.20;6.45;;;11.00;99.90;;;;;;5168954;27;20034;-87
2021/01/19 02:33:38;;;;;;;11.07;6.95;;;10.90;99.90;;;;;;5168040;27;20027;-88
2021/01/19 02:36:48;;;;;;;10.05;5.82;;;10.80;99.90;;;;;;5148140;27;20046;-87
2021/01/19 02:39:35;;;;;;;7.68;5.80;;;10.90;99.90;;;;;;5142520;27;20036;-87
2021/01/19 02:42:08;;;;;;;8.93;6.28;;;10.90;99.90;;;;;;5169004;27;20027;-87
2021/01/19 02:44:39;;;;;;;8.15;5.95;;;11.00;99.90;;;;;;5165977;27;20391;-87
2021/01/19 02:47:08;;;;;;;9.15;6.30;;;10.80;99.90;;;;;;5165270;27;20411;-88
2021/01/19 02:49:37;;;;;;;8.93;6.25;;;10.90;99.90;;;;;;5168367;27;20033;-87
2021/01/19 02:52:05;;;;;;;9.10;5.87;;;11.00;99.90;;;;;;5168963;27;20040;-87
2021/01/19 02:54:35;;;;;;;8.02;6.20;;;10.90;99.90;;;;;;5165800;27;20031;-87
2021/01/19 02:57:48;;;;;;;11.88;6.40;;;10.90;99.90;;;;;;5167533;27;20171;-88
2021/01/19 03:00:24;;;;;;;6.93;5.80;;;11.50;99.90;;;;;;5126737;28;20039;-87
2021/01/19 03:02:53;;;;;;;8.02;5.20;;;10.80;99.90;;;;;;5123023;27;20087;-88
2021/01/19 03:05:24;;;;;;;12.05;6.55;;;10.80;99.90;;;;;;5125636;27;20027;-86
2021/01/19 03:07:53;;;;;;;7.60;5.22;;;10.80;99.90;;;;;;5126799;28;20028;-86
2021/01/19 03:13:48;;;;;;;10.98;5.68;;;10.70;99.90;;;;;;5191562;27;20041;-87
2021/01/19 03:16:19;;;;;;;8.95;5.40;;;10.80;99.90;;;;;;5189235;27;20431;-87
2021/01/19 03:18:49;;;;;;;12.00;6.22;;;10.90;99.90;;;;;;5188708;27;20452;-87
2021/01/19 03:21:18;;;;;;;6.97;5.75;;;10.80;99.90;;;;;;5187986;27;20444;-87
2021/01/19 03:23:46;;;;;;;6.20;5.03;;;10.70;99.90;;;;;;5183572;27;20062;-87
2021/01/19 03:26:14;;;;;;;10.25;5.78;;;10.80;99.90;;;;;;5168808;27;20030;-88
2021/01/19 03:28:43;;;;;;;9.13;5.32;;;10.80;99.90;;;;;;5169884;27;20418;-87
2021/01/19 03:31:12;;;;;;;13.93;6.10;;;10.80;99.90;;;;;;5170078;27;20027;-87
2021/01/19 03:33:40;;;;;;;7.10;5.28;;;10.70;99.90;;;;;;5166504;27;20037;-86
2021/01/19 03:36:09;;;;;;;10.50;5.12;;;10.50;99.90;;;;;;5169245;27;20031;-87
2021/01/19 03:38:38;;;;;;;8.15;5.00;;;10.70;99.90;;;;;;5169878;27;20032;-87
2021/01/19 03:41:06;;;;;;;8.00;5.18;;;10.80;99.90;;;;;;5170644;27;20499;-87
2021/01/19 03:43:34;;;;;;;7.37;5.50;;;10.80;99.90;;;;;;5185121;27;20464;-87
2021/01/19 03:46:02;;;;;;;10.38;5.40;;;10.60;99.90;;;;;;5170854;27;20488;-86
2021/01/19 03:48:31;;;;;;;8.73;4.70;;;10.60;99.90;;;;;;5189988;27;20395;-87
2021/01/19 03:50:59;;;;;;;6.80;5.30;;;10.50;99.90;;;;;;5186241;27;20552;-86
2021/01/19 03:53:28;;;;;;;7.22;4.45;;;10.50;99.90;;;;;;5167099;27;20835;-87
2021/01/19 03:55:56;;;;;;;7.07;4.87;;;10.50;99.90;;;;;;5189485;27;20032;-87
2021/01/19 03:58:25;;;;;;;10.57;5.47;;;10.50;99.90;;;;;;5171364;27;20031;-87
2021/01/19 04:00:53;;;;;;;8.68;4.80;;;10.50;99.90;;;;;;5189498;27;20038;-87
2021/01/19 04:03:21;;;;;;;9.20;4.82;;;10.60;99.90;;;;;;5186609;27;20038;-87
2021/01/19 04:05:49;;;;;;;9.02;5.45;;;10.60;99.90;;;;;;5189463;27;20038;-87
2021/01/19 04:08:17;;;;;;;8.30;5.25;;;10.70;99.90;;;;;;5169712;27;20033;-87
2021/01/19 04:10:48;;;;;;;8.65;4.97;;;10.60;99.90;;;;;;5165683;27;20105;-88
2021/01/19 04:13:20;;;;;;;7.18;4.75;;;10.50;99.90;;;;;;5186190;27;20034;-87
2021/01/19 04:15:48;;;;;;;7.85;4.87;;;10.50;99.90;;;;;;5190895;27;20483;-87
2021/01/19 04:18:17;;;;;;;6.03;4.57;;;10.50;99.90;;;;;;5188197;27;20035;-86
2021/01/19 04:20:45;;;;;;;10.00;5.40;;;10.50;99.90;;;;;;5190619;27;20026;-87
2021/01/19 04:23:16;;;;;;;7.12;5.15;;;10.50;99.90;;;;;;5186489;27;20073;-87
2021/01/19 04:25:45;;;;;;;9.63;5.20;;;10.50;99.90;;;;;;5187501;27;20036;-87
2021/01/19 04:28:14;;;;;;;7.95;4.87;;;10.50;99.90;;;;;;5187985;27;20410;-89
2021/01/19 04:30:42;;;;;;;6.78;5.05;;;10.50;99.90;;;;;;5170695;27;20023;-87
2021/01/19 04:33:11;;;;;;;11.18;5.12;;;10.50;99.90;;;;;;5188599;27;20038;-87
2021/01/19 04:35:45;;;;;;;8.50;4.80;;;10.50;99.90;;;;;;5189608;27;20026;-87
2021/01/19 04:38:13;;;;;;;8.68;4.68;;;10.50;99.90;;;;;;5190621;27;20038;-87
2021/01/19 04:40:42;;;;;;;6.72;4.50;;;10.60;99.90;;;;;;5187970;27;20504;-87
2021/01/19 04:43:12;;;;;;;6.25;4.62;;;10.60;99.90;;;;;;5167939;27;20366;-87
2021/01/19 04:45:42;;;;;;;7.57;4.10;;;10.60;99.90;;;;;;5169124;27;20028;-88
2021/01/19 04:48:11;;;;;;;8.02;4.10;;;10.60;99.90;;;;;;5165618;27;20027;-88
2021/01/19 04:50:39;;;;;;;7.95;4.15;;;10.60;99.90;;;;;;5185163;27;20034;-87
2021/01/19 04:53:12;;;;;;;7.03;4.20;;;10.60;99.90;;;;;;5186445;27;20030;-86
2021/01/19 04:55:52;;;;;;;8.25;4.35;;;10.60;99.90;;;;;;5190034;27;20394;-88
2021/01/19 04:58:23;;;;;;;9.45;4.30;;;10.50;99.90;;;;;;5187285;27;20410;-87
2021/01/19 05:01:08;;;;;;;8.00;4.40;;;10.40;99.90;;;;;;5162772;27;20027;-87
2021/01/19 05:03:57;;;;;;;7.75;4.30;;;10.30;99.90;;;;;;5189077;27;20341;-86
2021/01/19 05:06:41;;;;;;;9.98;4.30;;;10.30;99.90;;;;;;5170471;27;20076;-87
2021/01/19 05:09:13;;;;;;;8.90;4.60;;;10.20;99.90;;;;;;5166517;27;20657;-86
2021/01/19 05:12:03;;;;;;;8.27;4.20;;;10.30;99.90;;;;;;5187257;27;20470;-87
2021/01/19 05:14:38;;;;;;;6.53;4.00;;;10.30;99.90;;;;;;5188575;27;20440;-86
2021/01/19 05:17:07;;;;;;;6.60;4.12;;;10.30;99.90;;;;;;5184778;27;20030;-86
2021/01/19 05:19:42;;;;;;;5.55;4.03;;;10.30;99.90;;;;;;5166109;27;20023;-87
2021/01/19 05:22:16;;;;;;;7.03;4.43;;;10.30;99.90;;;;;;5185424;27;20019;-87
2021/01/19 05:24:47;;;;;;;7.68;4.28;;;10.20;99.90;;;;;;5150602;27;20045;-88
2021/01/19 05:27:15;;;;;;;8.80;4.22;;;10.20;99.90;;;;;;5146308;27;20500;-87
2021/01/19 05:29:44;;;;;;;9.18;3.83;;;10.10;99.90;;;;;;5188854;27;20066;-87
2021/01/19 05:32:14;;;;;;;11.12;4.25;;;10.20;99.90;;;;;;5188154;27;20053;-86
2021/01/19 05:34:43;;;;;;;6.82;4.32;;;10.20;99.90;;;;;;5189231;27;20656;-88
2021/01/19 05:37:11;;;;;;;7.87;4.15;;;10.20;99.90;;;;;;5187134;27;20073;-87
2021/01/19 05:39:39;;;;;;;6.60;4.00;;;10.10;99.90;;;;;;5171238;27;20078;-87
2021/01/19 05:42:08;;;;;;;7.70;4.18;;;10.00;99.90;;;;;;5187962;27;20027;-87
2021/01/19 05:44:36;;;;;;;7.03;3.95;;;10.10;99.90;;;;;;5185039;27;20061;-86
2021/01/19 05:47:05;;;;;;;9.35;4.68;;;10.10;99.90;;;;;;5165741;27;20066;-87
2021/01/19 05:49:41;;;;;;;6.93;3.87;;;10.10;99.90;;;;;;5171804;27;20345;-86
2021/01/19 05:52:14;;;;;;;5.22;3.80;;;10.30;99.90;;;;;;5188436;27;20035;-86
2021/01/19 05:54:48;;;;;;;6.28;3.70;;;10.20;99.90;;;;;;5187899;27;20015;-88
2021/01/19 05:57:20;;;;;;;9.63;3.70;;;10.20;99.90;;;;;;5186778;27;20490;-86
2021/01/19 05:59:57;;;;;;;6.22;4.00;;;10.20;99.90;;;;;;5172708;27;20042;-87
2021/01/19 06:02:45;;;;;;;7.03;3.95;;;10.20;99.90;;;;;;5189932;27;20398;-86
2021/01/19 06:05:17;;;;;;;9.02;4.30;;;10.20;99.90;;;;;;5170540;27;20050;-88
2021/01/19 06:07:47;;;;;;;8.15;3.70;;;10.20;99.90;;;;;;5189672;27;20458;-86
2021/01/19 06:10:20;;;;;;;6.30;3.87;;;10.20;99.90;;;;;;5191108;27;20045;-88
2021/01/19 06:12:48;;;;;;;5.25;3.80;;;10.10;99.90;;;;;;5186259;27;20528;-87
2021/01/19 06:15:27;;;;;;;7.30;3.50;;;10.00;99.90;;;;;;5166459;27;20068;-87
2021/01/19 06:17:56;;;;;;;5.57;3.75;;;10.00;99.90;;;;;;5189279;27;20427;-88
2021/01/19 06:20:24;;;;;;;10.35;4.47;;;10.00;99.90;;;;;;5171361;27;20026;-86
2021/01/19 06:22:53;;;;;;;5.25;3.70;;;10.00;99.90;;;;;;5186025;27;20492;-88
2021/01/19 06:25:20;;;;;;;7.12;4.07;;;9.90;99.90;;;;;;5184412;27;20616;-88
2021/01/19 06:27:49;;;;;;;5.65;3.75;;;9.90;99.90;;;;;;5191180;27;20422;-87
2021/01/19 06:30:17;;;;;;;8.27;4.32;;;9.80;99.90;;;;;;5189038;27;20060;-87
2021/01/19 06:32:49;;;;;;;5.03;3.67;;;9.90;99.90;;;;;;5189511;27;20023;-87
2021/01/19 06:35:21;;;;;;;5.87;3.37;;;9.90;99.90;;;;;;5167937;27;20061;-87
2021/01/19 06:37:52;;;;;;;7.78;3.75;;;9.90;99.90;;;;;;5188036;27;20023;-87
2021/01/19 06:40:23;;;;;;;5.40;3.70;;;9.90;99.90;;;;;;5187165;27;20090;-87
2021/01/19 06:43:02;;;;;;;8.02;3.92;;;9.80;99.90;;;;;;5187802;27;20027;-88
2021/01/19 06:45:32;;;;;;;6.95;3.67;;;9.90;99.90;;;;;;5186953;27;20358;-87
2021/01/19 06:48:02;;;;;;;5.78;3.83;;;10.00;99.90;;;;;;5186759;27;20031;-87
2021/01/19 06:50:37;;;;;;;5.20;3.85;;;10.00;99.90;;;;;;5190171;27;20018;-88
2021/01/19 06:53:27;;;;;;;6.25;3.45;;;10.00;99.90;;;;;;5164874;27;20047;-86
2021/01/19 06:56:11;;;;;;;7.03;3.55;;;10.00;99.90;;;;;;5169559;27;20070;-87
2021/01/19 06:58:54;;;;;;;5.95;3.50;;;10.00;99.90;;;;;;5192172;27;20015;-89
2021/01/19 07:01:29;;;;;;;9.07;4.10;;;9.90;99.90;;;;;;5189574;27;20038;-87
2021/01/19 07:04:24;;;;;;;5.45;3.42;;;9.80;99.90;;;;;;5189696;27;20023;-86
2021/01/19 07:07:06;;;;;;;3.87;3.30;;;9.70;99.90;;;;;;5166584;27;20031;-88
2021/01/19 07:10:04;;;;;;;7.65;3.20;;;9.50;99.90;;;;;;5189765;27;20043;-86
2021/01/19 07:12:39;;;;;;;6.90;3.50;;;9.50;99.90;;;;;;5167222;27;20061;-86
2021/01/19 07:15:10;;;;;;;5.10;3.60;;;9.40;99.90;;;;;;5170723;27;20381;-87
2021/01/19 07:17:57;;;;;;;4.90;3.15;;;9.40;99.90;;;;;;5185921;27;20018;-86
2021/01/19 07:20:32;;;;;;;5.18;3.17;;;9.50;99.90;;;;;;5169753;27;20074;-87
2021/01/19 07:23:12;;;;;;;6.62;3.40;;;9.50;99.90;;;;;;5167474;27;20421;-86
2021/01/19 07:25:43;;;;;;;5.87;3.40;;;9.50;99.90;;;;;;5190037;27;20046;-87
2021/01/19 07:28:11;;;;;;;5.37;3.37;;;9.60;99.90;;;;;;5188848;27;20023;-86
2021/01/19 07:30:39;;;;;;;4.10;2.97;;;9.60;99.90;;;;;;5171100;27;20035;-87
2021/01/19 07:33:08;;;;;;;4.03;2.95;;;9.60;99.90;;;;;;5170575;27;20034;-87
2021/01/19 07:35:36;;;;;;;3.37;2.97;;;9.50;99.90;;;;;;5189944;27;20069;-87
2021/01/19 07:38:08;;;;;;;7.18;3.90;;;9.50;99.90;;;;;;5189285;27;20027;-88
2021/01/19 07:40:47;;;;;;;7.20;3.70;;;9.40;99.90;;;;;;5168991;27;20074;-87
2021/01/19 07:43:16;;;;;;;4.60;3.40;;;9.40;99.90;;;;;;5151774;27;20027;-87
2021/01/19 07:45:52;;;;;;;3.83;2.90;;;9.40;99.90;;;;;;5188614;27;20115;-87
2021/01/19 07:48:32;;;;;;;7.87;3.87;;;9.40;99.90;;;;;;5167519;27;20489;-88
2021/01/19 07:51:14;;;;;;;7.03;3.45;;;9.30;99.90;;;;;;5186144;27;20526;-86
2021/01/19 07:53:55;;;;;;;7.07;3.22;;;9.30;99.90;;;;;;5189245;27;20062;-86
2021/01/19 07:56:27;;;;;;;7.72;3.60;;;9.30;99.90;;;;;;5169740;27;20023;-87
2021/01/19 07:58:57;;;;;;;7.60;4.45;;;9.40;99.90;;;;;;5187353;27;20050;-87
2021/01/19 08:01:29;;;;;;;7.47;3.72;;;9.50;99.90;;;;;;5170015;27;20098;-86
2021/01/19 08:04:12;;;;;;;9.23;3.78;;;9.70;99.90;;;;;;5188904;27;20027;-87
2021/01/19 08:06:44;;;;;;;9.68;3.83;;;9.70;99.90;;;;;;5170867;27;20035;-87
2021/01/19 08:09:15;;;;;;;9.85;3.55;;;10.20;99.90;;;;;;5187283;27;20027;-87
2021/01/19 08:11:45;;;;;;;5.10;3.30;;;10.70;99.90;;;;;;5170293;27;20078;-88
2021/01/19 08:14:15;;;;;;;6.65;3.40;;;11.30;99.90;;;;;;5189743;27;20387;-88
2021/01/19 08:16:48;;;;;;;9.20;3.10;;;12.10;99.90;;;;;;5188547;27;20059;-88
2021/01/19 08:19:17;;;;;;;6.75;3.42;;;13.10;99.90;;;;;;5187926;27;20073;-89
2021/01/19 08:21:54;;;;;;;7.95;3.62;;;14.20;99.90;;;;;;5168598;27;20027;-87
2021/01/19 08:24:24;;;;;;;4.70;3.20;;;;;;;;;;5187905;27;20026;-88
2021/01/19 08:26:55;;;;;;;7.20;3.12;;;16.40;99.90;;;;;;5188308;27;20077;-88
2021/01/19 08:29:30;;;;;;;6.18;2.60;;;17.90;99.90;;;;;;5187915;27;20046;-86
2021/01/19 08:32:02;;;;;;;5.03;3.25;;;18.80;99.90;;;;;;5187573;27;20046;-87
2021/01/19 08:34:32;;;;;;;3.67;2.50;;;19.80;97.50;;;;;;5189520;27;20019;-86
2021/01/19 08:37:01;;;;;;;5.43;2.40;;;20.60;96.50;;;;;;5188020;27;20053;-87
2021/01/19 08:39:30;;;;;;;6.37;2.53;;;21.50;93.20;;;;;;5189022;27;20031;-87
2021/01/19 08:41:59;;;;;;;3.05;2.25;;;22.00;90.70;;;;;;5187719;27;20378;-87
2021/01/19 08:44:32;;;;;;;6.07;2.60;;;22.60;85.90;;;;;;5188098;27;20030;-86
2021/01/19 08:47:01;;;;;;;4.87;2.30;;;22.70;85.30;;;;;;5189626;27;20514;-87
2021/01/19 08:49:35;;;;;;;3.97;2.70;;;22.80;80.20;;;;;;5184166;27;20090;-86
2021/01/19 08:52:05;;;;;;;4.75;2.20;;;23.50;76.80;;;;;;5185547;27;20035;-87
2021/01/19 08:54:34;;;;;;;4.40;2.17;;;24.60;73.30;;;;;;5186901;27;20018;-87
2021/01/19 08:57:05;;;;;;;7.18;3.00;;;24.40;70.90;;;;;;5188440;27;20034;-87
2021/01/19 08:59:52;;;;;;;4.43;2.95;;;23.80;70.80;;;;;;5189410;27;20015;-87
2021/01/19 09:02:30;;;;;;;7.20;3.47;;;23.70;71.90;;;;;;5188332;27;20093;-87
2021/01/19 09:04:58;;;;;;;3.25;2.53;;;24.00;73.80;;;;;;5167535;27;20031;-88
2021/01/19 09:07:30;;;;;;;3.62;2.40;;;25.10;72.50;;;;;;5188410;27;20066;-89
2021/01/19 09:09:58;;;;;;;3.03;2.50;;;26.00;69.90;;;;;;5151634;27;20078;-87
2021/01/19 09:12:44;;;;;;;3.85;2.65;;;25.90;65.20;;;;;;5170582;27;20034;-88
2021/01/19 09:15:15;;;;;;;3.08;2.70;;;25.70;65.70;;;;;;5188935;27;20031;-88
2021/01/19 09:17:51;;;;;;;3.47;2.70;;;25.00;65.50;;;;;;5168869;27;20091;-88
2021/01/19 09:20:21;;;;;;;3.72;2.60;;;24.90;66.90;;;;;;5188604;27;20023;-88
2021/01/19 09:22:53;;;;;;;3.33;2.60;;;26.10;66.10;;;;;;5189379;27;20319;-88
2021/01/19 09:25:23;;;;;;;4.40;2.90;;;25.50;64.00;;;;;;5164606;27;20055;-88
2021/01/19 09:28:03;;;;;;;5.10;2.70;;;25.80;65.70;;;;;;5166162;27;20062;-88
2021/01/19 09:30:35;;;;;;;4.95;3.10;;;25.30;64.20;;;;;;5188862;27;20020;-88
2021/01/19 09:33:08;;;;;;;3.40;3.03;;;25.50;66.60;;;;;;5170112;27;20034;-89
2021/01/19 09:35:39;;;;;;;4.18;3.87;;;25.50;63.80;;;;;;5187888;27;20061;-88
2021/01/19 09:38:18;;;;;;;12.63;6.78;;;25.20;66.20;;;;;;5188323;27;20023;-88
2021/01/19 09:40:47;;;;;;;8.65;3.40;;;24.70;65.20;;;;;;5188486;27;20074;-89
2021/01/19 09:43:17;;;;;;;7.12;6.05;;;24.50;67.20;;;;;;5187260;27;20427;-88
2021/01/19 09:45:46;;;;;;;5.40;4.87;;;23.90;67.80;;;;;;5186486;27;20027;-88
2021/01/19 09:48:18;;;;;;;5.18;4.68;;;24.20;67.40;;;;;;5152681;27;20051;-88
2021/01/19 09:50:46;;;;;;;9.18;8.63;;;23.90;69.00;;;;;;5169513;27;20191;-89
2021/01/19 09:53:32;;;;;;;5.87;5.47;;;23.30;68.30;;;;;;5188287;27;20070;-88
2021/01/19 09:56:13;;;;;;;5.45;4.03;;;24.70;66.30;;;;;;5187787;27;20330;-88
2021/01/19 09:58:42;;;;;;;5.00;3.87;;;25.80;64.70;;;;;;5189071;27;20025;-88
2021/01/19 10:01:22;;;;;;;3.35;3.12;;;26.20;63.30;;;;;;5185346;27;20397;-88
2021/01/19 10:03:50;;;;;;;3.83;3.42;;;26.70;61.90;;;;;;5188812;27;20037;-88
2021/01/19 10:06:23;;;;;;;3.53;2.90;;;26.30;61.30;;;;;;5188463;27;20031;-88
2021/01/19 10:08:53;;;;;;;3.28;3.00;;;26.50;61.20;;;;;;5189350;27;20050;-88
2021/01/19 10:11:27;;;;;;;4.90;2.75;;;26.50;58.70;;;;;;5167408;27;20408;-88
2021/01/19 10:13:56;;;;;;;5.22;2.95;;;28.70;56.70;;;;;;5185733;27;20046;-88
2021/01/19 10:16:28;;;;;;;4.30;2.58;;;28.30;54.20;;;;;;5188274;27;20089;-88
2021/01/19 10:18:57;;;;;;;4.40;2.90;;;28.80;53.30;;;;;;5187753;27;20078;-88
2021/01/19 10:21:31;;;;;;;2.83;2.62;;;28.40;53.70;;;;;;5187530;27;20066;-88
2021/01/19 10:24:03;;;;;;;3.35;2.60;;;27.30;53.40;;;;;;5187217;27;20045;-88
2021/01/19 10:26:31;;;;;;;3.47;2.58;;;26.90;53.60;;;;;;5188016;27;20418;-88
2021/01/19 10:28:59;;;;;;;4.05;2.28;;;28.60;53.30;;;;;;5186073;27;20078;-88
2021/01/19 10:31:28;;;;;;;4.75;2.30;;;29.50;51.30;;;;;;5185410;27;20460;-88
2021/01/19 10:34:04;;;;;;;6.68;2.47;;;28.80;49.80;;;;;;5186958;27;20477;-88
2021/01/19 10:36:37;;;;;;;3.15;2.40;;;28.90;50.60;;;;;;5167565;27;20435;-88
2021/01/19 10:39:09;;;;;;;2.80;2.47;;;29.60;47.70;;;;;;5187186;27;20018;-87
2021/01/19 10:41:41;;;;;;;3.40;2.58;;;29.80;46.60;;;;;;5186326;27;20046;-88
2021/01/19 10:44:11;;;;;;;3.72;2.65;;;29.90;45.70;;;;;;5187939;27;20175;-88
2021/01/19 10:46:40;;;;;;;5.55;3.85;;;27.60;46.00;;;;;;5190479;27;20058;-89
2021/01/19 10:49:14;;;;;;;2.72;2.47;;;27.60;47.40;;;;;;5171560;27;20031;-88
2021/01/19 10:51:44;;;;;;;3.17;1.75;;;28.90;46.60;;;;;;5169647;27;20015;-89
2021/01/19 10:54:14;;;;;;;4.72;3.10;;;29.80;46.40;;;;;;5188946;27;20027;-88
2021/01/19 10:56:59;;;;;;;6.43;4.43;;;30.00;44.90;;;;;;5188489;27;20038;-88
2021/01/19 10:59:27;;;;;;;3.03;1.95;;;28.30;45.20;;;;;;5190728;27;20050;-88
2021/01/19 11:01:56;;;;;;;6.25;2.83;;;28.80;45.60;;;;;;5188265;27;20302;-88
2021/01/19 11:04:24;;;;;;;3.40;2.60;;;28.30;48.50;;;;;;5185197;27;20024;-87
2021/01/19 11:06:53;;;;;;;3.85;2.83;;;29.20;46.20;;;;;;5188184;27;20062;-88
2021/01/19 11:09:21;;;;;;;4.78;3.17;;;28.40;46.00;;;;;;5170156;27;20403;-87
2021/01/19 11:11:50;;;;;;;3.80;2.70;;;28.10;46.40;;;;;;5187564;27;20069;-88
2021/01/19 11:14:18;;;;;;;3.25;2.10;;;28.50;45.70;;;;;;5189496;27;20378;-88
2021/01/19 11:16:46;;;;;;;4.18;2.80;;;30.20;45.80;;;;;;5186572;27;20031;-88
2021/01/19 11:19:15;;;;;;;3.10;2.80;;;29.40;44.50;;;;;;5168785;27;20031;-88
2021/01/19 11:21:43;;;;;;;3.92;2.62;;;27.70;46.20;;;;;;5186609;27;20516;-88
2021/01/19 11:24:12;;;;;;;3.22;2.60;;;28.10;45.30;;;;;;5189848;27;20047;-88
2021/01/19 11:26:42;;;;;;;11.15;2.80;;;27.70;45.90;;;;;;5187423;27;20097;-87
2021/01/19 11:29:29;;;;;;;2.70;2.50;;;28.70;45.10;;;;;;5190978;27;20091;-88
2021/01/19 11:31:57;;;;;;;3.10;2.53;;;29.30;45.50;;;;;;5188394;27;20559;-88
2021/01/19 11:34:25;;;;;;;3.30;2.53;;;29.20;45.30;;;;;;5189064;27;20030;-88
2021/01/19 11:36:53;;;;;;;5.45;3.20;;;29.80;45.60;;;;;;5188264;27;20032;-88
2021/01/19 11:39:21;;;;;;;3.53;2.60;;;29.20;44.50;;;;;;5171176;27;20024;-88
2021/01/19 11:41:49;;;;;;;3.30;3.00;;;29.20;45.20;;;;;;5167332;27;20053;-87
2021/01/19 11:44:19;;;;;;;3.10;2.90;;;28.30;44.20;;;;;;5188885;27;20426;-88
2021/01/19 11:46:47;;;;;;;5.15;3.03;;;28.10;45.40;;;;;;5188770;27;20061;-89
2021/01/19 11:49:15;;;;;;;3.45;2.80;;;29.00;45.00;;;;;;5190126;27;20033;-87
2021/01/19 11:51:44;;;;;;;3.17;2.60;;;29.00;44.40;;;;;;5170026;27;20038;-88
2021/01/19 11:54:12;;;;;;;5.60;2.35;;;28.50;44.30;;;;;;5189775;27;20031;-88
2021/01/19 11:56:44;;;;;;;4.37;2.50;;;29.70;43.20;;;;;;5188504;27;20054;-88
2021/01/19 11:59:12;;;;;;;4.65;1.70;;;29.50;43.90;;;;;;5169674;27;20685;-88
2021/01/19 12:01:40;;;;;;;3.30;2.00;;;30.50;43.50;;;;;;5188143;27;20045;-88
2021/01/19 12:04:10;;;;;;;3.65;2.33;;;28.70;44.40;;;;;;5187056;27;20038;-88
2021/01/19 12:06:40;;;;;;;2.42;2.10;;;28.70;44.90;;;;;;5186905;27;20019;-88
2021/01/19 12:09:10;;;;;;;3.87;1.77;;;29.00;43.40;;;;;;5185725;27;20037;-88
2021/01/19 12:11:44;;;;;;;4.20;2.70;;;27.80;45.20;;;;;;5171696;27;20025;-88
2021/01/19 12:14:13;;;;;;;2.47;2.28;;;26.20;46.70;;;;;;5183668;27;20046;-88
2021/01/19 12:16:41;;;;;;;4.10;2.20;;;27.90;46.10;;;;;;5167138;27;20027;-88
2021/01/19 12:19:10;;;;;;;25.58;3.78;;;27.60;46.10;;;;;;5186897;27;20027;-87
2021/01/19 12:21:49;;;;;;;4.15;2.20;;;27.50;45.80;;;;;;5168569;27;20035;-87
2021/01/19 12:24:18;;;;;;;2.55;1.90;;;26.40;45.70;;;;;;5171696;27;20066;-88
2021/01/19 12:26:49;;;;;;;3.85;1.87;;;27.10;47.80;;;;;;5188834;27;20066;-88
2021/01/19 12:29:21;;;;;;;5.00;2.10;;;26.70;47.90;;;;;;5153612;27;20377;-87
2021/01/19 12:31:50;;;;;;;5.80;2.58;;;26.50;47.80;;;;;;5170440;27;20358;-89
2021/01/19 12:34:19;;;;;;;5.50;1.90;;;27.20;46.90;;;;;;5184175;27;20042;-88
2021/01/19 12:36:48;;;;;;;3.25;1.83;;;28.10;46.30;;;;;;5185147;27;20043;-87
2021/01/19 12:39:17;;;;;;;3.30;2.00;;;25.90;47.60;;;;;;5171180;27;20082;-88
2021/01/19 12:41:45;;;;;;;3.78;2.25;;;26.80;46.90;;;;;;5166390;27;20069;-88
2021/01/19 12:44:14;;;;;;;4.55;2.05;;;26.50;47.90;;;;;;5186582;27;20118;-87
2021/01/19 12:46:42;;;;;;;2.55;2.28;;;27.60;47.00;;;;;;5170491;27;20086;-87
2021/01/19 12:49:10;;;;;;;2.05;1.85;;;26.20;50.20;;;;;;5185342;27;20038;-88
2021/01/19 12:51:39;;;;;;;3.67;1.85;;;24.10;54.70;;;;;;5187768;27;20035;-88
2021/01/19 12:54:07;;;;;;;3.20;1.75;;;22.70;61.40;;;;;;5187676;27;20063;-86
2021/01/19 12:56:37;;;;;;;2.40;1.70;;;23.60;64.00;;;;;;5186995;27;20065;-87
2021/01/19 12:59:05;;;;;;;2.55;1.50;;;22.10;65.70;;;;;;5187934;27;20050;-87
2021/01/19 13:01:35;;;;;;;6.75;2.00;;;21.90;56.30;;;;;;5188324;27;20027;-86
2021/01/19 13:04:04;;;;;;;2.67;1.58;;;22.00;58.00;;;;;;5186024;27;20031;-86
2021/01/19 13:06:32;;;;;;;2.95;1.73;;;21.60;69.50;;;;;;5188289;27;20353;-87
2021/01/19 13:09:01;;;;;;;6.70;1.92;;;21.50;75.00;;;;;;5188302;27;20047;-87
2021/01/19 13:11:28;;;;;;;4.35;2.12;;;21.50;66.10;;;;;;5188363;27;20031;-87
2021/01/19 13:13:58;;;;;;;2.65;1.90;;;21.50;66.70;;;;;;5187167;27;20035;-86